Terminal Aerodrome Forecast
Issued by NWS

Home | Current Version | Previous Version | Text Only | Print | Product List | Glossary On
Versions: 1 2 3 4 5 6 7 8 9 10 11 12 13 14 15 16 17 18 19 20 21
881
FTUS43 KBIS 221542 AAB
TAFDIK
TAF AMD
KDIK 221542Z 2216/2312 28010KT P6SM OVC007
      TEMPO 2216/2218 1SM BR BKN003 OVC008
     FM222100 27011KT P6SM OVC015
     FM230400 25007KT 3SM BR OVC025
     FM230800 19006KT P6SM SCT020 BKN035=

USA.gov is the U.S. government's official web portal to all federal, state and local government web resources and services.